createdAt,value
2022-12-12T00:00:52.426Z,24.53
2022-12-12T00:03:19.854Z,25.53
2022-12-12T00:05:48.227Z,25.43
2022-12-12T00:08:15.324Z,24.13
2022-12-12T00:10:42.406Z,23.80
2022-12-12T00:13:09.463Z,23.67
2022-12-12T00:15:36.697Z,23.67
2022-12-12T00:18:03.769Z,25.20
2022-12-12T00:20:30.814Z,25.43
2022-12-12T00:22:57.995Z,25.50
2022-12-12T00:25:25.405Z,23.77
2022-12-12T00:27:52.592Z,25.67
2022-12-12T00:30:19.617Z,24.77
2022-12-12T00:32:46.801Z,24.63
2022-12-12T00:35:14.365Z,25.10
2022-12-12T00:37:41.697Z,24.83
2022-12-12T00:40:09.060Z,24.90
2022-12-12T00:42:36.161Z,25.10
2022-12-12T00:45:03.231Z,24.93
2022-12-12T00:47:30.453Z,24.77
2022-12-12T00:49:57.500Z,24.53
2022-12-12T00:52:24.537Z,25.97
2022-12-12T00:54:52.998Z,23.80
2022-12-12T00:57:20.042Z,25.77
2022-12-12T00:59:47.108Z,25.80
2022-12-12T01:02:14.158Z,24.13
2022-12-12T01:04:41.264Z,24.47
2022-12-12T01:07:08.966Z,24.93
2022-12-12T01:09:36.026Z,24.87
2022-12-12T01:12:03.184Z,25.97
2022-12-12T01:14:30.223Z,26.43
2022-12-12T01:16:57.593Z,24.13
2022-12-12T01:19:24.668Z,24.43
2022-12-12T01:21:51.780Z,25.33
2022-12-12T01:24:18.854Z,25.63
2022-12-12T01:26:45.911Z,25.37
2022-12-12T01:29:13.010Z,26.37
2022-12-12T01:31:40.217Z,27.10
2022-12-12T01:34:07.277Z,25.67
2022-12-12T01:36:34.445Z,26.63
2022-12-12T01:39:01.561Z,25.93
2022-12-12T01:41:28.598Z,25.87
2022-12-12T01:43:56.125Z,24.43
2022-12-12T01:46:23.237Z,23.50
2022-12-12T01:48:52.182Z,24.73
2022-12-12T01:51:20.604Z,25.13
2022-12-12T01:53:49.400Z,25.63
2022-12-12T01:56:18.287Z,26.33
2022-12-12T01:58:46.778Z,24.97
2022-12-12T02:01:15.307Z,25.50
2022-12-12T02:03:43.315Z,26.73
2022-12-12T02:06:12.856Z,26.60
2022-12-12T02:08:40.265Z,25.27
2022-12-12T02:11:07.378Z,25.33
2022-12-12T02:13:35.161Z,26.33
2022-12-12T02:16:17.604Z,25.73
2022-12-12T02:19:01.688Z,24.77
2022-12-12T02:21:28.712Z,25.60
2022-12-12T02:24:14.138Z,25.30
2022-12-12T02:27:01.281Z,25.00
2022-12-12T02:29:43.622Z,24.17
2022-12-12T02:32:17.885Z,27.13
2022-12-12T02:34:50.885Z,23.83
2022-12-12T02:37:37.536Z,26.40
2022-12-12T02:40:18.922Z,25.77
2022-12-12T02:42:59.362Z,27.40
2022-12-12T02:45:32.322Z,25.47
2022-12-12T02:48:02.964Z,25.60
2022-12-12T02:50:31.491Z,26.13
2022-12-12T02:53:00.473Z,25.60
2022-12-12T02:55:28.581Z,25.50
2022-12-12T02:57:57.815Z,25.70
2022-12-12T03:00:25.148Z,25.20
2022-12-12T03:03:18.020Z,25.53
2022-12-12T03:06:06.818Z,27.20
2022-12-12T03:08:33.973Z,25.53
2022-12-12T03:11:02.170Z,26.77
2022-12-12T03:13:45.332Z,27.67
2022-12-12T03:16:35.681Z,27.27
2022-12-12T03:19:02.875Z,26.93
2022-12-12T03:21:36.241Z,26.60
2022-12-12T03:24:09.009Z,26.90
2022-12-12T03:26:51.446Z,26.87
2022-12-12T03:29:21.480Z,25.20
2022-12-12T03:31:51.100Z,26.20
2022-12-12T03:34:21.012Z,27.20
2022-12-12T03:36:57.684Z,27.50
2022-12-12T03:39:27.909Z,25.63
2022-12-12T03:42:02.392Z,23.93
2022-12-12T03:44:39.763Z,25.97
2022-12-12T03:47:11.625Z,25.93
2022-12-12T03:49:49.680Z,26.90
2022-12-12T03:52:31.310Z,25.23
2022-12-12T03:55:02.756Z,26.53
2022-12-12T03:57:50.065Z,24.90
2022-12-12T04:00:18.074Z,26.53
2022-12-12T04:02:54.431Z,25.93
2022-12-12T04:05:33.504Z,26.27
2022-12-12T04:08:00.613Z,25.63
2022-12-12T04:10:48.227Z,26.67
2022-12-12T04:13:31.839Z,26.83
2022-12-12T04:16:08.057Z,26.10
2022-12-12T04:18:56.377Z,25.67
2022-12-12T04:22:00.646Z,26.23
2022-12-12T04:24:28.077Z,26.33
2022-12-12T04:27:07.088Z,26.03
2022-12-12T04:29:48.990Z,26.53
2022-12-12T04:32:20.494Z,25.10
2022-12-12T04:34:57.836Z,25.23
2022-12-12T04:37:28.141Z,25.63
2022-12-12T04:39:58.536Z,26.23
2022-12-12T04:42:28.099Z,27.33
2022-12-12T04:45:00.045Z,27.57
2022-12-12T04:47:30.016Z,26.27
2022-12-12T04:49:57.492Z,27.63
2022-12-12T04:52:25.542Z,26.77
2022-12-12T04:55:15.055Z,27.17
2022-12-12T04:57:44.559Z,26.13
2022-12-12T05:00:13.357Z,27.20
2022-12-12T05:02:44.766Z,27.20
2022-12-12T05:05:15.101Z,26.07
2022-12-12T05:07:44.423Z,26.90
2022-12-12T05:10:13.891Z,27.07
2022-12-12T05:12:43.207Z,27.77
2022-12-12T05:15:10.523Z,26.50
2022-12-12T05:17:41.910Z,26.97
2022-12-12T05:20:10.301Z,26.80
2022-12-12T05:22:37.357Z,27.07
2022-12-12T05:25:04.723Z,27.60
2022-12-12T05:27:31.795Z,26.17
2022-12-12T05:29:59.317Z,27.67
2022-12-12T05:32:26.521Z,25.40
2022-12-12T05:34:53.626Z,27.50
2022-12-12T05:37:20.719Z,25.63
2022-12-12T05:39:47.794Z,28.27
2022-12-12T05:42:14.948Z,29.63
2022-12-12T05:44:42.700Z,26.13
2022-12-12T05:47:09.959Z,27.60
2022-12-12T05:49:37.085Z,27.03
2022-12-12T05:52:04.205Z,26.90
2022-12-12T05:54:31.293Z,27.60
2022-12-12T05:56:58.340Z,27.30
2022-12-12T05:59:25.425Z,26.87
2022-12-12T06:01:52.481Z,25.33
2022-12-12T06:04:19.730Z,25.77
2022-12-12T06:06:47.170Z,26.67
2022-12-12T06:09:14.268Z,25.67
2022-12-12T06:11:42.760Z,26.93
2022-12-12T06:14:09.886Z,25.70
2022-12-12T06:16:37.361Z,25.33
2022-12-12T06:19:04.418Z,26.33
2022-12-12T06:21:31.607Z,24.50
2022-12-12T06:23:58.973Z,24.73
2022-12-12T06:26:26.243Z,26.30
2022-12-12T06:28:53.295Z,25.17
2022-12-12T06:31:21.141Z,26.93
2022-12-12T06:33:48.213Z,26.23
2022-12-12T06:36:19.067Z,25.77
2022-12-12T06:38:46.121Z,26.90
2022-12-12T06:41:14.261Z,26.43
2022-12-12T06:43:41.864Z,26.73
2022-12-12T06:46:11.017Z,25.27
2022-12-12T06:48:38.092Z,25.13
2022-12-12T06:51:09.349Z,24.47
2022-12-12T06:53:37.772Z,24.43
2022-12-12T06:56:12.840Z,24.37
2022-12-12T06:58:40.001Z,25.77
2022-12-12T07:01:09.210Z,24.73
2022-12-12T07:03:37.444Z,24.30
2022-12-12T07:06:10.981Z,26.57
2022-12-12T07:08:38.515Z,26.20
2022-12-12T07:11:09.285Z,25.67
2022-12-12T07:13:36.409Z,25.57
2022-12-12T07:16:03.557Z,24.83
2022-12-12T07:18:30.614Z,23.23
2022-12-12T07:20:57.862Z,25.43
2022-12-12T07:23:24.933Z,26.03
2022-12-12T07:25:52.012Z,27.43
2022-12-12T07:28:19.117Z,25.30
2022-12-12T07:30:47.097Z,24.73
2022-12-12T07:33:16.917Z,25.80
2022-12-12T07:35:44.762Z,24.70
2022-12-12T07:38:12.348Z,25.93
2022-12-12T07:40:39.567Z,26.67
2022-12-12T07:43:08.505Z,26.50
2022-12-12T07:45:35.885Z,25.63
2022-12-12T07:48:04.288Z,26.40
2022-12-12T07:50:31.334Z,27.53
2022-12-12T07:52:59.961Z,26.23
2022-12-12T07:55:27.032Z,25.60
2022-12-12T07:57:54.617Z,24.03
2022-12-12T08:00:22.093Z,26.00
2022-12-12T08:02:50.120Z,25.27
2022-12-12T08:05:17.684Z,25.53
2022-12-12T08:07:44.922Z,26.10
2022-12-12T08:10:12.032Z,24.50
2022-12-12T08:12:40.354Z,26.00
2022-12-12T08:15:09.229Z,26.47
2022-12-12T08:17:37.641Z,26.23
2022-12-12T08:20:04.806Z,26.60
2022-12-12T08:22:32.001Z,24.47
2022-12-12T08:24:59.008Z,25.67
2022-12-12T08:27:28.054Z,26.60
2022-12-12T08:29:55.179Z,25.77
2022-12-12T08:32:22.286Z,25.20
2022-12-12T08:34:49.470Z,25.27
2022-12-12T08:37:16.697Z,25.67
2022-12-12T08:39:44.820Z,26.30
2022-12-12T08:42:13.160Z,25.67
2022-12-12T08:44:40.308Z,25.83
2022-12-12T08:47:07.403Z,24.17
2022-12-12T08:49:34.476Z,25.43
2022-12-12T08:52:01.705Z,25.47
2022-12-12T08:54:28.844Z,24.70
2022-12-12T08:56:55.950Z,25.73
2022-12-12T08:59:23.194Z,25.03
2022-12-12T09:01:50.302Z,24.37
2022-12-12T09:04:17.413Z,26.23
2022-12-12T09:06:45.704Z,24.43
2022-12-12T09:09:12.833Z,24.90
2022-12-12T09:11:39.887Z,26.40
2022-12-12T09:14:06.934Z,24.83
2022-12-12T09:16:34.316Z,24.87
2022-12-12T09:19:01.443Z,24.47
2022-12-12T09:21:28.477Z,24.30
2022-12-12T09:23:55.562Z,25.27
2022-12-12T09:26:22.604Z,25.50
2022-12-12T09:28:49.956Z,24.13
2022-12-12T09:31:17.083Z,24.17
2022-12-12T09:33:44.199Z,25.07
2022-12-12T09:36:12.197Z,23.97
2022-12-12T09:38:39.257Z,25.53
2022-12-12T09:41:14.469Z,25.93
2022-12-12T09:44:00.131Z,24.50
2022-12-12T09:46:33.212Z,23.87
2022-12-12T09:49:08.502Z,24.90
2022-12-12T09:51:36.041Z,24.97
2022-12-12T09:54:03.444Z,23.37
2022-12-12T09:56:40.439Z,24.60
2022-12-12T09:59:19.316Z,25.40
2022-12-12T10:01:46.388Z,24.13
2022-12-12T10:04:22.441Z,25.47
2022-12-12T10:06:57.805Z,24.03
2022-12-12T10:09:30.954Z,24.77
2022-12-12T10:12:01.038Z,26.00
2022-12-12T10:14:37.572Z,24.40
2022-12-12T10:17:07.798Z,24.57
2022-12-12T10:19:39.367Z,25.20
2022-12-12T10:22:15.180Z,24.27
2022-12-12T10:24:57.336Z,23.90
2022-12-12T10:27:25.176Z,25.80
2022-12-12T10:29:52.484Z,26.23
2022-12-12T10:32:31.643Z,26.20
2022-12-12T10:35:17.743Z,23.93
2022-12-12T10:38:04.046Z,24.50
2022-12-12T10:40:45.170Z,24.80
2022-12-12T10:43:27.896Z,24.17
2022-12-12T10:46:10.243Z,25.17
2022-12-12T10:48:38.001Z,22.97
2022-12-12T10:51:06.576Z,23.97
2022-12-12T10:53:34.415Z,23.07
2022-12-12T10:56:21.372Z,24.97
2022-12-12T10:58:55.446Z,23.13
2022-12-12T11:01:52.275Z,23.07
2022-12-12T11:04:14.800Z,23.73
2022-12-12T11:06:47.417Z,25.60
2022-12-12T11:09:23.632Z,23.67
2022-12-12T11:12:04.279Z,24.27
2022-12-12T11:14:39.236Z,24.87
2022-12-12T11:17:23.600Z,24.20
2022-12-12T11:19:52.459Z,24.80
2022-12-12T11:22:19.814Z,23.70
2022-12-12T11:24:48.065Z,26.80
2022-12-12T11:27:32.985Z,24.73
2022-12-12T11:30:02.202Z,24.00
2022-12-12T11:32:38.355Z,24.17
2022-12-12T11:35:07.022Z,25.73
2022-12-12T11:37:48.922Z,25.53
2022-12-12T11:40:23.681Z,24.23
2022-12-12T11:42:51.159Z,25.07
2022-12-12T11:45:18.185Z,23.03
2022-12-12T11:47:47.113Z,25.07
2022-12-12T11:50:20.373Z,26.37
2022-12-12T11:52:48.151Z,24.40
2022-12-12T11:55:16.427Z,26.20
2022-12-12T11:57:51.210Z,25.97
2022-12-12T12:00:18.298Z,24.17
2022-12-12T12:03:05.779Z,24.53
2022-12-12T12:05:40.763Z,25.07
2022-12-12T12:08:07.896Z,24.90
2022-12-12T12:10:44.242Z,25.00
2022-12-12T12:13:24.163Z,25.60
2022-12-12T12:16:06.521Z,25.57
2022-12-12T12:18:39.366Z,25.70
2022-12-12T12:21:09.455Z,25.63
2022-12-12T12:23:41.848Z,26.40
2022-12-12T12:26:29.037Z,26.73
2022-12-12T12:29:12.258Z,25.97
2022-12-12T12:31:46.368Z,26.53
2022-12-12T12:34:13.432Z,25.30
2022-12-12T12:36:51.292Z,26.73
2022-12-12T12:39:21.127Z,27.53
2022-12-12T12:42:08.433Z,27.53
2022-12-12T12:44:41.581Z,25.83
2022-12-12T12:47:27.456Z,28.43
2022-12-12T12:50:01.283Z,26.70
2022-12-12T12:52:41.185Z,26.57
2022-12-12T12:55:13.942Z,25.63
2022-12-12T12:57:43.213Z,25.80
2022-12-12T13:00:17.045Z,27.93
2022-12-12T13:02:54.549Z,27.33
2022-12-12T13:05:24.222Z,26.43
2022-12-12T13:08:00.347Z,26.77
2022-12-12T13:10:28.919Z,24.50
2022-12-12T13:13:10.996Z,23.60
2022-12-12T13:15:51.670Z,24.13
2022-12-12T13:18:19.015Z,24.27
2022-12-12T13:20:53.763Z,25.07
2022-12-12T13:23:29.436Z,25.43
2022-12-12T13:26:15.287Z,22.83
2022-12-12T13:28:45.045Z,24.83
2022-12-12T13:31:18.382Z,25.53
2022-12-12T13:33:47.982Z,22.97
2022-12-12T13:36:29.667Z,22.47
2022-12-12T13:38:58.339Z,24.73
2022-12-12T13:41:25.559Z,24.83
2022-12-12T13:43:57.096Z,26.73
2022-12-12T13:46:27.491Z,25.40
2022-12-12T13:49:06.912Z,23.87
2022-12-12T13:51:35.789Z,24.20
2022-12-12T13:54:13.376Z,24.20
2022-12-12T13:56:41.482Z,25.77
2022-12-12T13:59:28.490Z,24.20
2022-12-12T14:02:03.593Z,22.17
2022-12-12T14:04:35.347Z,23.37
2022-12-12T14:07:22.730Z,21.93
2022-12-12T14:09:52.330Z,20.67
2022-12-12T14:12:24.888Z,20.13
2022-12-12T14:15:01.960Z,22.77
2022-12-12T14:17:31.815Z,21.37
2022-12-12T14:20:01.673Z,21.13
2022-12-12T14:22:37.900Z,21.27
2022-12-12T14:25:17.184Z,20.30
2022-12-12T14:27:50.368Z,19.47
2022-12-12T14:30:24.955Z,18.93
2022-12-12T14:32:54.949Z,20.03
2022-12-12T14:35:40.626Z,20.40
2022-12-12T14:38:37.119Z,19.20
2022-12-12T14:41:05.948Z,18.67
2022-12-12T14:43:37.768Z,18.23
2022-12-12T14:46:05.050Z,19.37
2022-12-12T14:48:32.878Z,20.07
2022-12-12T14:51:02.020Z,20.00
2022-12-12T14:53:38.298Z,21.60
2022-12-12T14:56:13.151Z,20.43
2022-12-12T14:58:43.494Z,21.80
2022-12-12T15:01:10.608Z,21.20
2022-12-12T15:03:40.519Z,22.20
2022-12-12T15:06:26.614Z,21.60
2022-12-12T15:08:54.294Z,20.77
2022-12-12T15:11:22.637Z,24.00
2022-12-12T15:13:50.552Z,24.33
2022-12-12T15:16:18.152Z,23.80
2022-12-12T15:18:45.459Z,22.43
2022-12-12T15:21:13.595Z,22.37
2022-12-12T15:23:41.989Z,22.33
2022-12-12T15:26:15.302Z,21.73
2022-12-12T15:28:44.846Z,22.00
2022-12-12T15:31:15.369Z,22.07
2022-12-12T15:33:42.675Z,21.80
2022-12-12T15:36:29.234Z,21.20
2022-12-12T15:39:04.653Z,21.43
2022-12-12T15:41:33.989Z,20.57
2022-12-12T15:44:01.645Z,22.23
2022-12-12T15:46:28.869Z,23.47
2022-12-12T15:48:56.000Z,21.53
2022-12-12T15:51:29.432Z,22.00
2022-12-12T15:53:56.878Z,22.33
2022-12-12T15:56:25.551Z,22.87
2022-12-12T15:58:53.761Z,22.13
2022-12-12T16:01:24.748Z,23.43
2022-12-12T16:03:58.512Z,23.10
2022-12-12T16:06:30.366Z,24.37
2022-12-12T16:09:03.186Z,24.43
2022-12-12T16:11:32.313Z,24.90
2022-12-12T16:13:59.858Z,26.53
2022-12-12T16:16:35.040Z,23.50
2022-12-12T16:19:02.577Z,23.50
2022-12-12T16:21:30.388Z,22.63
2022-12-12T16:24:10.516Z,24.10
2022-12-12T16:26:37.565Z,24.30
2022-12-12T16:29:04.967Z,23.63
2022-12-12T16:31:32.230Z,24.87
2022-12-12T16:34:02.523Z,25.00
2022-12-12T16:36:29.588Z,23.83
2022-12-12T16:38:56.877Z,26.43
2022-12-12T16:41:23.960Z,23.70
2022-12-12T16:43:51.060Z,26.27
2022-12-12T16:46:22.858Z,32.93
2022-12-12T16:48:50.240Z,30.23
2022-12-12T16:51:18.456Z,29.80
2022-12-12T16:53:45.508Z,30.30
2022-12-12T16:56:12.844Z,30.70
2022-12-12T16:58:39.898Z,29.77
2022-12-12T17:01:07.391Z,28.93
2022-12-12T17:03:34.532Z,29.93
2022-12-12T17:06:01.981Z,29.60
2022-12-12T17:08:29.196Z,51.30
2022-12-12T17:11:09.587Z,35.47
2022-12-12T17:13:37.796Z,34.70
2022-12-12T17:16:05.345Z,33.10
2022-12-12T17:18:32.770Z,32.53
2022-12-12T17:20:59.935Z,32.53
2022-12-12T17:23:30.124Z,33.20
2022-12-12T17:26:03.648Z,31.57
2022-12-12T17:28:31.856Z,30.10
2022-12-12T17:30:58.947Z,31.07
2022-12-12T17:33:27.291Z,30.77
2022-12-12T17:36:01.592Z,30.27
2022-12-12T17:38:30.424Z,23.97
2022-12-12T17:40:57.843Z,23.17
2022-12-12T17:43:25.179Z,22.67
2022-12-12T17:45:59.578Z,23.50
2022-12-12T17:48:29.055Z,24.90
2022-12-12T17:50:57.377Z,25.47
2022-12-12T17:53:24.646Z,26.23
2022-12-12T17:56:01.211Z,23.37
2022-12-12T17:58:35.732Z,24.27
2022-12-12T18:01:09.967Z,25.00
2022-12-12T18:03:37.446Z,24.67
2022-12-12T18:06:04.982Z,23.40
2022-12-12T18:08:32.091Z,24.60
2022-12-12T18:10:59.334Z,25.13
2022-12-12T18:13:27.048Z,25.73
2022-12-12T18:15:57.804Z,24.63
2022-12-12T18:18:25.827Z,24.53
2022-12-12T18:20:52.996Z,24.03
2022-12-12T18:23:20.381Z,25.00
2022-12-12T18:25:47.514Z,22.57
2022-12-12T18:28:14.608Z,23.10
2022-12-12T18:30:42.110Z,24.67
2022-12-12T18:33:09.530Z,25.97
2022-12-12T18:35:36.850Z,24.43
2022-12-12T18:38:03.965Z,24.77
2022-12-12T18:40:31.169Z,25.03
2022-12-12T18:42:58.251Z,23.47
2022-12-12T18:45:25.768Z,22.90
2022-12-12T18:47:52.885Z,24.17
2022-12-12T18:50:19.936Z,26.67
2022-12-12T18:52:47.446Z,27.27
2022-12-12T18:55:14.546Z,24.77
2022-12-12T18:57:41.647Z,25.40
2022-12-12T19:00:08.892Z,24.73
2022-12-12T19:02:38.417Z,24.53
2022-12-12T19:05:06.828Z,25.73
2022-12-12T19:07:33.897Z,27.50
2022-12-12T19:10:01.047Z,30.07
2022-12-12T19:12:28.201Z,33.20
2022-12-12T19:17:42.925Z,32.97
2022-12-12T19:20:10.248Z,29.73
2022-12-12T19:22:45.350Z,32.53
2022-12-12T19:25:14.774Z,27.87
2022-12-12T19:27:42.187Z,27.97
2022-12-12T19:30:11.386Z,26.63
2022-12-12T19:32:38.795Z,29.30
2022-12-12T19:35:06.143Z,29.20
2022-12-12T19:37:33.260Z,26.50
2022-12-12T19:40:00.548Z,26.33
2022-12-12T19:42:28.849Z,26.17
2022-12-12T19:44:55.877Z,25.37
2022-12-12T19:47:22.929Z,24.57
2022-12-12T19:49:50.816Z,25.83
2022-12-12T19:52:18.641Z,27.23
2022-12-12T19:54:45.864Z,26.20
2022-12-12T19:57:13.015Z,25.47
2022-12-12T19:59:40.136Z,22.90
2022-12-12T20:02:07.658Z,22.67
2022-12-12T20:04:34.773Z,22.00
2022-12-12T20:07:01.812Z,23.50
2022-12-12T20:09:30.315Z,23.27
2022-12-12T20:11:58.108Z,23.70
2022-12-12T20:14:28.309Z,23.20
2022-12-12T20:16:56.043Z,23.67
2022-12-12T20:19:23.759Z,24.20
2022-12-12T20:22:01.758Z,24.60
2022-12-12T20:24:29.445Z,24.53
2022-12-12T20:26:56.961Z,22.97
2022-12-12T20:29:24.215Z,24.70
2022-12-12T20:31:51.701Z,24.43
2022-12-12T20:34:21.698Z,23.50
2022-12-12T20:36:50.151Z,26.23
2022-12-12T20:39:38.401Z,25.63
2022-12-12T20:42:05.465Z,25.77
2022-12-12T20:44:32.831Z,24.30
2022-12-12T20:47:00.899Z,25.77
2022-12-12T20:49:29.381Z,24.77
2022-12-12T20:51:58.261Z,25.83
2022-12-12T20:54:27.443Z,28.73
2022-12-12T20:56:54.954Z,27.60
2022-12-12T20:59:22.208Z,27.07
2022-12-12T21:01:49.376Z,26.07
2022-12-12T21:04:16.515Z,27.77
2022-12-12T21:06:48.493Z,25.10
2022-12-12T21:09:23.785Z,24.17
2022-12-12T21:11:52.791Z,25.97
2022-12-12T21:14:19.935Z,26.90
2022-12-12T21:16:47.422Z,26.20
2022-12-12T21:19:15.069Z,25.23
2022-12-12T21:21:43.933Z,24.57
2022-12-12T21:24:15.871Z,23.63
2022-12-12T21:26:43.139Z,24.60
2022-12-12T21:29:10.603Z,25.13
2022-12-12T21:31:42.261Z,25.03
2022-12-12T21:34:12.405Z,25.80
2022-12-12T21:36:39.450Z,24.40
2022-12-12T21:39:07.061Z,25.33
2022-12-12T21:41:35.205Z,25.80
2022-12-12T21:44:02.979Z,26.97
2022-12-12T21:46:30.528Z,26.17
2022-12-12T21:49:17.286Z,28.37
2022-12-12T21:51:46.994Z,27.30
2022-12-12T21:54:14.877Z,26.93
2022-12-12T21:56:42.292Z,27.17
2022-12-12T21:59:10.566Z,28.63
2022-12-12T22:01:37.881Z,27.80
2022-12-12T22:04:06.754Z,29.00
2022-12-12T22:06:36.388Z,26.07
2022-12-12T22:09:05.597Z,25.70
2022-12-12T22:11:40.816Z,27.87
2022-12-12T22:14:17.027Z,26.67
2022-12-12T22:16:44.788Z,27.53
2022-12-12T22:19:13.840Z,28.13
2022-12-12T22:21:42.584Z,26.53
2022-12-12T22:24:10.270Z,28.70
2022-12-12T22:26:38.447Z,26.10
2022-12-12T22:29:07.005Z,26.83
2022-12-12T22:31:37.473Z,27.07
2022-12-12T22:34:06.076Z,25.57
2022-12-12T22:36:34.417Z,27.00
2022-12-12T22:39:02.102Z,27.63
2022-12-12T22:41:30.196Z,27.27
2022-12-12T22:43:58.249Z,26.63
2022-12-12T22:46:26.239Z,29.87
2022-12-12T22:48:54.715Z,27.30
2022-12-12T22:51:26.230Z,26.30
2022-12-12T22:53:55.550Z,27.43
2022-12-12T22:56:23.950Z,27.97
2022-12-12T22:58:51.174Z,25.97
2022-12-12T23:01:20.360Z,27.27
2022-12-12T23:03:48.123Z,28.47
2022-12-12T23:06:16.580Z,26.20
2022-12-12T23:08:43.714Z,26.77
2022-12-12T23:11:13.133Z,26.07
2022-12-12T23:13:43.377Z,26.00
2022-12-12T23:16:12.408Z,27.20
2022-12-12T23:18:40.164Z,26.43
2022-12-12T23:21:10.986Z,26.53
2022-12-12T23:23:42.315Z,27.20
2022-12-12T23:26:11.432Z,25.63
2022-12-12T23:28:39.036Z,27.87
2022-12-12T23:31:12.449Z,26.80
2022-12-12T23:33:39.786Z,27.50
2022-12-12T23:36:10.667Z,26.73
2022-12-12T23:38:37.820Z,26.53
2022-12-12T23:41:05.698Z,27.30
2022-12-12T23:43:34.096Z,27.30
2022-12-12T23:46:06.064Z,25.60
2022-12-12T23:48:33.574Z,26.23
2022-12-12T23:51:00.943Z,26.17
2022-12-12T23:53:31.326Z,26.43
2022-12-12T23:56:03.269Z,26.00
2022-12-12T23:58:30.493Z,24.03
